createdAt,value
2019-05-10T00:09:17.592Z,999.52
2019-05-10T00:24:17.786Z,999.50
2019-05-10T00:39:19.495Z,999.58
2019-05-10T00:54:20.517Z,999.67
2019-05-10T01:09:20.630Z,999.73
2019-05-10T01:24:20.795Z,999.76
2019-05-10T01:39:21.271Z,999.95
2019-05-10T01:54:21.754Z,1000.00
2019-05-10T02:09:27.541Z,1000.07
2019-05-10T02:24:29.701Z,1000.05
2019-05-10T02:39:32.836Z,1000.03
2019-05-10T02:54:36.969Z,1000.26
2019-05-10T03:09:37.408Z,1000.39
2019-05-10T03:24:37.754Z,1000.40
2019-05-10T03:39:37.828Z,1000.60
2019-05-10T03:54:38.007Z,1000.76
2019-05-10T04:09:38.136Z,1001.03
2019-05-10T04:24:38.286Z,1001.06
2019-05-10T04:39:38.520Z,1001.20
2019-05-10T04:54:38.665Z,1001.44
2019-05-10T05:09:38.823Z,1001.50
2019-05-10T05:24:38.972Z,1001.69
2019-05-10T05:39:39.072Z,1001.81
2019-05-10T05:54:39.203Z,1001.95
2019-05-10T06:09:39.510Z,1002.12
2019-05-10T06:24:39.674Z,1002.23
2019-05-10T06:39:39.847Z,1002.37
2019-05-10T06:54:40.069Z,1002.37
2019-05-10T07:10:01.077Z,1002.48
2019-05-10T07:24:45.374Z,1002.52
2019-05-10T07:39:45.595Z,1002.67
2019-05-10T07:54:47.815Z,1002.90
2019-05-10T08:09:48.754Z,1003.07
2019-05-10T08:24:52.702Z,1003.23
2019-05-10T08:39:56.125Z,1003.36
2019-05-10T08:54:56.446Z,1003.42
2019-05-10T09:09:56.755Z,1003.47
2019-05-10T09:24:56.955Z,1003.62
2019-05-10T09:40:05.966Z,1003.79
2019-05-10T09:55:04.061Z,1003.90
2019-05-10T10:10:12.858Z,1004.06
2019-05-10T10:25:14.080Z,1004.25
2019-05-10T10:40:17.719Z,1004.29
2019-05-10T10:55:18.774Z,1004.39
2019-05-10T11:10:21.609Z,1004.69
2019-05-10T11:25:22.709Z,1004.69
2019-05-10T11:40:29.783Z,1004.60
2019-05-10T11:55:28.040Z,1004.63
2019-05-10T12:10:28.148Z,1004.60
2019-05-10T12:25:47.212Z,1004.63
2019-05-10T12:40:33.713Z,1004.84
2019-05-10T12:55:33.810Z,1004.90
2019-05-10T13:10:37.251Z,1005.11
2019-05-10T13:25:39.157Z,1005.26
2019-05-10T13:40:45.592Z,1005.33
2019-05-10T13:55:44.567Z,1005.45
2019-05-10T14:10:44.654Z,1005.47
2019-05-10T14:25:44.793Z,1005.65
2019-05-10T14:40:44.877Z,1005.74
2019-05-10T14:55:45.043Z,1005.81
2019-05-10T15:10:45.186Z,1006.45
2019-05-10T15:25:56.432Z,1006.75
2019-05-10T15:40:50.394Z,1006.94
2019-05-10T15:55:50.601Z,1007.07
2019-05-10T16:10:50.747Z,1007.15
2019-05-10T16:25:50.868Z,1007.30
2019-05-10T16:40:57.980Z,1007.56
2019-05-10T16:55:56.117Z,1007.69
2019-05-10T17:11:15.431Z,1007.85
2019-05-10T17:26:15.534Z,1008.00
2019-05-10T17:41:19.438Z,1008.20
2019-05-10T17:56:20.814Z,1008.40
2019-05-10T18:11:20.950Z,1008.40
2019-05-10T18:26:21.115Z,1008.71
2019-05-10T18:41:21.300Z,1008.95
2019-05-10T18:56:25.483Z,1009.02
2019-05-10T19:11:26.565Z,1009.23
2019-05-10T19:26:31.606Z,1009.41
2019-05-10T19:41:31.865Z,1009.54
2019-05-10T19:56:37.067Z,1009.62
2019-05-10T20:11:37.400Z,1009.61
2019-05-10T20:26:37.592Z,1009.81
2019-05-10T20:41:37.835Z,1010.05
2019-05-10T20:56:37.939Z,1009.94
2019-05-10T21:11:38.229Z,1009.94
2019-05-10T21:26:38.577Z,1010.01
2019-05-10T21:41:38.797Z,1009.99
2019-05-10T21:56:39.041Z,1009.96
2019-05-10T22:11:39.258Z,1010.09
2019-05-10T22:26:39.466Z,1010.12
2019-05-10T22:41:39.589Z,1010.26
2019-05-10T22:56:39.785Z,1010.30
2019-05-10T23:11:40.129Z,1010.35
2019-05-10T23:26:40.285Z,1010.54
2019-05-10T23:41:40.441Z,1010.83
2019-05-10T23:56:40.690Z,1010.56
